sensor_id;sensor_type;location;lat;lon;timestamp;P1;durP1;ratioP1;P2;durP2;ratioP2
48987;SDS011;34799;51.440;-2.534;2023-11-22T00:02:26;10.02;;;4.25;;
48987;SDS011;34799;51.440;-2.534;2023-11-22T00:04:56;9.48;;;4.47;;
48987;SDS011;34799;51.440;-2.534;2023-11-22T00:07:23;11.68;;;3.85;;
48987;SDS011;34799;51.440;-2.534;2023-11-22T00:09:51;11.73;;;3.78;;
48987;SDS011;34799;51.440;-2.534;2023-11-22T00:12:19;11.75;;;4.38;;
48987;SDS011;34799;51.440;-2.534;2023-11-22T00:14:46;8.90;;;3.85;;
48987;SDS011;34799;51.440;-2.534;2023-11-22T00:17:13;11.18;;;3.75;;
48987;SDS011;34799;51.440;-2.534;2023-11-22T00:19:40;11.23;;;4.35;;
48987;SDS011;34799;51.440;-2.534;2023-11-22T00:22:08;10.35;;;4.05;;
48987;SDS011;34799;51.440;-2.534;2023-11-22T00:24:42;9.73;;;4.45;;
48987;SDS011;34799;51.440;-2.534;2023-11-22T00:27:09;7.60;;;4.18;;
48987;SDS011;34799;51.440;-2.534;2023-11-22T00:29:36;9.93;;;4.43;;
48987;SDS011;34799;51.440;-2.534;2023-11-22T00:32:04;9.82;;;4.30;;
48987;SDS011;34799;51.440;-2.534;2023-11-22T00:34:31;8.23;;;4.18;;
48987;SDS011;34799;51.440;-2.534;2023-11-22T00:36:59;8.38;;;4.43;;
48987;SDS011;34799;51.440;-2.534;2023-11-22T00:39:27;8.55;;;3.72;;
48987;SDS011;34799;51.440;-2.534;2023-11-22T00:41:54;8.65;;;4.18;;
48987;SDS011;34799;51.440;-2.534;2023-11-22T00:44:23;11.93;;;4.57;;
48987;SDS011;34799;51.440;-2.534;2023-11-22T00:46:52;10.35;;;4.30;;
48987;SDS011;34799;51.440;-2.534;2023-11-22T00:49:20;11.65;;;4.20;;
48987;SDS011;34799;51.440;-2.534;2023-11-22T00:51:47;7.25;;;3.70;;
48987;SDS011;34799;51.440;-2.534;2023-11-22T00:54:14;7.20;;;3.70;;
48987;SDS011;34799;51.440;-2.534;2023-11-22T00:56:41;8.93;;;3.70;;
48987;SDS011;34799;51.440;-2.534;2023-11-22T00:59:09;9.35;;;3.83;;
48987;SDS011;34799;51.440;-2.534;2023-11-22T01:01:37;9.10;;;4.80;;
48987;SDS011;34799;51.440;-2.534;2023-11-22T01:04:04;7.38;;;3.65;;
48987;SDS011;34799;51.440;-2.534;2023-11-22T01:06:34;7.30;;;3.33;;
48987;SDS011;34799;51.440;-2.534;2023-11-22T01:09:03;9.13;;;3.95;;
48987;SDS011;34799;51.440;-2.534;2023-11-22T01:11:31;8.38;;;3.10;;
48987;SDS011;34799;51.440;-2.534;2023-11-22T01:13:58;8.50;;;3.63;;
48987;SDS011;34799;51.440;-2.534;2023-11-22T01:16:26;9.30;;;4.13;;
48987;SDS011;34799;51.440;-2.534;2023-11-22T01:18:54;6.05;;;3.42;;
48987;SDS011;34799;51.440;-2.534;2023-11-22T01:21:22;10.75;;;3.53;;
48987;SDS011;34799;51.440;-2.534;2023-11-22T01:23:49;8.52;;;4.10;;
48987;SDS011;34799;51.440;-2.534;2023-11-22T01:26:16;8.18;;;4.15;;
48987;SDS011;34799;51.440;-2.534;2023-11-22T01:28:43;10.10;;;4.22;;
48987;SDS011;34799;51.440;-2.534;2023-11-22T01:31:12;9.38;;;4.03;;
48987;SDS011;34799;51.440;-2.534;2023-11-22T01:33:40;8.00;;;3.67;;
48987;SDS011;34799;51.440;-2.534;2023-11-22T01:36:07;9.63;;;3.83;;
48987;SDS011;34799;51.440;-2.534;2023-11-22T01:38:35;9.13;;;4.43;;
48987;SDS011;34799;51.440;-2.534;2023-11-22T01:41:05;8.98;;;4.45;;
48987;SDS011;34799;51.440;-2.534;2023-11-22T01:43:34;10.85;;;3.90;;
48987;SDS011;34799;51.440;-2.534;2023-11-22T01:46:02;8.77;;;4.07;;
48987;SDS011;34799;51.440;-2.534;2023-11-22T01:48:31;10.43;;;4.35;;
48987;SDS011;34799;51.440;-2.534;2023-11-22T01:50:59;9.75;;;3.92;;
48987;SDS011;34799;51.440;-2.534;2023-11-22T01:53:28;9.70;;;3.97;;
48987;SDS011;34799;51.440;-2.534;2023-11-22T01:55:57;10.07;;;3.35;;
48987;SDS011;34799;51.440;-2.534;2023-11-22T01:58:24;12.57;;;4.50;;
48987;SDS011;34799;51.440;-2.534;2023-11-22T02:00:54;9.88;;;3.70;;
48987;SDS011;34799;51.440;-2.534;2023-11-22T02:03:21;10.57;;;4.35;;
48987;SDS011;34799;51.440;-2.534;2023-11-22T02:05:49;10.27;;;4.30;;
48987;SDS011;34799;51.440;-2.534;2023-11-22T02:08:18;10.45;;;4.50;;
48987;SDS011;34799;51.440;-2.534;2023-11-22T02:10:46;11.45;;;4.00;;
48987;SDS011;34799;51.440;-2.534;2023-11-22T02:13:25;9.95;;;3.97;;
48987;SDS011;34799;51.440;-2.534;2023-11-22T02:15:53;6.75;;;3.38;;
48987;SDS011;34799;51.440;-2.534;2023-11-22T02:18:23;9.35;;;3.92;;
48987;SDS011;34799;51.440;-2.534;2023-11-22T02:20:55;6.55;;;3.53;;
48987;SDS011;34799;51.440;-2.534;2023-11-22T02:23:22;8.32;;;3.38;;
48987;SDS011;34799;51.440;-2.534;2023-11-22T02:25:50;9.40;;;3.50;;
48987;SDS011;34799;51.440;-2.534;2023-11-22T02:28:17;8.25;;;3.60;;
48987;SDS011;34799;51.440;-2.534;2023-11-22T02:30:45;8.95;;;3.60;;
48987;SDS011;34799;51.440;-2.534;2023-11-22T02:33:13;9.30;;;3.15;;
48987;SDS011;34799;51.440;-2.534;2023-11-22T02:35:41;8.23;;;3.08;;
48987;SDS011;34799;51.440;-2.534;2023-11-22T02:38:09;9.80;;;3.65;;
48987;SDS011;34799;51.440;-2.534;2023-11-22T02:40:36;7.53;;;3.88;;
48987;SDS011;34799;51.440;-2.534;2023-11-22T02:43:04;6.93;;;3.15;;
48987;SDS011;34799;51.440;-2.534;2023-11-22T02:45:33;7.47;;;3.20;;
48987;SDS011;34799;51.440;-2.534;2023-11-22T02:48:00;8.88;;;3.60;;
48987;SDS011;34799;51.440;-2.534;2023-11-22T02:50:31;9.80;;;3.67;;
48987;SDS011;34799;51.440;-2.534;2023-11-22T02:52:58;8.10;;;3.67;;
48987;SDS011;34799;51.440;-2.534;2023-11-22T02:55:25;7.88;;;3.50;;
48987;SDS011;34799;51.440;-2.534;2023-11-22T02:57:53;6.82;;;3.33;;
48987;SDS011;34799;51.440;-2.534;2023-11-22T03:00:20;6.43;;;3.03;;
48987;SDS011;34799;51.440;-2.534;2023-11-22T03:02:49;8.25;;;3.08;;
48987;SDS011;34799;51.440;-2.534;2023-11-22T03:05:20;7.50;;;3.50;;
48987;SDS011;34799;51.440;-2.534;2023-11-22T03:07:49;8.02;;;3.42;;
48987;SDS011;34799;51.440;-2.534;2023-11-22T03:10:18;8.68;;;3.53;;
48987;SDS011;34799;51.440;-2.534;2023-11-22T03:12:45;8.07;;;3.22;;
48987;SDS011;34799;51.440;-2.534;2023-11-22T03:15:12;8.52;;;3.67;;
48987;SDS011;34799;51.440;-2.534;2023-11-22T03:17:40;8.35;;;3.50;;
48987;SDS011;34799;51.440;-2.534;2023-11-22T03:20:08;8.73;;;3.17;;
48987;SDS011;34799;51.440;-2.534;2023-11-22T03:22:37;6.00;;;3.17;;
48987;SDS011;34799;51.440;-2.534;2023-11-22T03:25:05;8.05;;;3.60;;
48987;SDS011;34799;51.440;-2.534;2023-11-22T03:27:37;7.60;;;3.45;;
48987;SDS011;34799;51.440;-2.534;2023-11-22T03:30:04;8.90;;;3.20;;
48987;SDS011;34799;51.440;-2.534;2023-11-22T03:32:38;6.97;;;3.22;;
48987;SDS011;34799;51.440;-2.534;2023-11-22T03:35:06;11.57;;;3.63;;
48987;SDS011;34799;51.440;-2.534;2023-11-22T03:37:34;6.20;;;3.03;;
48987;SDS011;34799;51.440;-2.534;2023-11-22T03:40:01;8.75;;;3.75;;
48987;SDS011;34799;51.440;-2.534;2023-11-22T03:42:29;6.03;;;3.22;;
48987;SDS011;34799;51.440;-2.534;2023-11-22T03:44:57;8.30;;;4.03;;
48987;SDS011;34799;51.440;-2.534;2023-11-22T03:47:27;7.03;;;3.22;;
48987;SDS011;34799;51.440;-2.534;2023-11-22T03:49:55;9.52;;;3.88;;
48987;SDS011;34799;51.440;-2.534;2023-11-22T03:52:22;7.82;;;3.97;;
48987;SDS011;34799;51.440;-2.534;2023-11-22T03:54:50;8.77;;;3.20;;
48987;SDS011;34799;51.440;-2.534;2023-11-22T03:57:18;9.65;;;3.78;;
48987;SDS011;34799;51.440;-2.534;2023-11-22T03:59:46;6.80;;;3.58;;
48987;SDS011;34799;51.440;-2.534;2023-11-22T04:02:14;6.72;;;3.20;;
48987;SDS011;34799;51.440;-2.534;2023-11-22T04:04:41;8.05;;;3.83;;
48987;SDS011;34799;51.440;-2.534;2023-11-22T04:07:08;8.73;;;3.65;;
48987;SDS011;34799;51.440;-2.534;2023-11-22T04:09:35;7.88;;;3.33;;
48987;SDS011;34799;51.440;-2.534;2023-11-22T04:12:03;7.65;;;3.58;;
48987;SDS011;34799;51.440;-2.534;2023-11-22T04:14:30;7.65;;;3.28;;
48987;SDS011;34799;51.440;-2.534;2023-11-22T04:16:59;6.25;;;3.70;;
48987;SDS011;34799;51.440;-2.534;2023-11-22T04:19:26;8.05;;;3.75;;
48987;SDS011;34799;51.440;-2.534;2023-11-22T04:21:54;7.68;;;3.47;;
48987;SDS011;34799;51.440;-2.534;2023-11-22T04:24:21;6.05;;;2.97;;
48987;SDS011;34799;51.440;-2.534;2023-11-22T04:26:48;7.55;;;3.35;;
48987;SDS011;34799;51.440;-2.534;2023-11-22T04:29:15;6.22;;;3.50;;
48987;SDS011;34799;51.440;-2.534;2023-11-22T04:31:43;10.77;;;4.22;;
48987;SDS011;34799;51.440;-2.534;2023-11-22T04:34:10;9.20;;;3.72;;
48987;SDS011;34799;51.440;-2.534;2023-11-22T04:36:38;7.88;;;3.85;;
48987;SDS011;34799;51.440;-2.534;2023-11-22T04:39:05;6.60;;;3.83;;
48987;SDS011;34799;51.440;-2.534;2023-11-22T04:41:34;8.32;;;3.50;;
48987;SDS011;34799;51.440;-2.534;2023-11-22T04:44:03;9.70;;;3.90;;
48987;SDS011;34799;51.440;-2.534;2023-11-22T04:46:31;7.70;;;3.72;;
48987;SDS011;34799;51.440;-2.534;2023-11-22T04:48:59;8.60;;;3.40;;
48987;SDS011;34799;51.440;-2.534;2023-11-22T04:51:26;11.65;;;3.35;;
48987;SDS011;34799;51.440;-2.534;2023-11-22T04:53:56;5.90;;;3.20;;
48987;SDS011;34799;51.440;-2.534;2023-11-22T04:56:24;10.38;;;3.83;;
48987;SDS011;34799;51.440;-2.534;2023-11-22T04:58:51;9.27;;;2.90;;
48987;SDS011;34799;51.440;-2.534;2023-11-22T05:01:18;10.13;;;3.67;;
48987;SDS011;34799;51.440;-2.534;2023-11-22T05:03:46;9.85;;;3.55;;
48987;SDS011;34799;51.440;-2.534;2023-11-22T05:06:14;12.05;;;4.15;;
48987;SDS011;34799;51.440;-2.534;2023-11-22T05:08:41;7.30;;;3.67;;
48987;SDS011;34799;51.440;-2.534;2023-11-22T05:11:09;10.88;;;3.83;;
48987;SDS011;34799;51.440;-2.534;2023-11-22T05:13:37;9.25;;;4.00;;
48987;SDS011;34799;51.440;-2.534;2023-11-22T05:16:05;6.93;;;3.60;;
48987;SDS011;34799;51.440;-2.534;2023-11-22T05:18:32;8.93;;;3.35;;
48987;SDS011;34799;51.440;-2.534;2023-11-22T05:20:59;7.30;;;3.15;;
48987;SDS011;34799;51.440;-2.534;2023-11-22T05:23:27;9.38;;;4.05;;
48987;SDS011;34799;51.440;-2.534;2023-11-22T05:25:54;7.80;;;4.00;;
48987;SDS011;34799;51.440;-2.534;2023-11-22T05:28:21;9.68;;;3.10;;
48987;SDS011;34799;51.440;-2.534;2023-11-22T05:30:49;7.40;;;3.53;;
48987;SDS011;34799;51.440;-2.534;2023-11-22T05:33:17;9.80;;;4.18;;
48987;SDS011;34799;51.440;-2.534;2023-11-22T05:35:45;8.85;;;3.55;;
48987;SDS011;34799;51.440;-2.534;2023-11-22T05:38:13;6.75;;;3.67;;
48987;SDS011;34799;51.440;-2.534;2023-11-22T05:40:41;8.15;;;4.05;;
48987;SDS011;34799;51.440;-2.534;2023-11-22T05:43:09;8.27;;;4.03;;
48987;SDS011;34799;51.440;-2.534;2023-11-22T05:45:38;9.38;;;3.53;;
48987;SDS011;34799;51.440;-2.534;2023-11-22T05:48:05;6.00;;;3.28;;
48987;SDS011;34799;51.440;-2.534;2023-11-22T05:50:32;6.80;;;3.30;;
48987;SDS011;34799;51.440;-2.534;2023-11-22T05:52:59;6.85;;;3.47;;
48987;SDS011;34799;51.440;-2.534;2023-11-22T05:55:26;6.93;;;3.42;;
48987;SDS011;34799;51.440;-2.534;2023-11-22T05:57:56;10.05;;;3.90;;
48987;SDS011;34799;51.440;-2.534;2023-11-22T06:00:24;7.22;;;3.30;;
48987;SDS011;34799;51.440;-2.534;2023-11-22T06:02:54;7.45;;;3.92;;
48987;SDS011;34799;51.440;-2.534;2023-11-22T06:05:22;9.07;;;3.78;;
48987;SDS011;34799;51.440;-2.534;2023-11-22T06:08:08;8.60;;;3.08;;
48987;SDS011;34799;51.440;-2.534;2023-11-22T06:10:38;8.98;;;3.72;;
48987;SDS011;34799;51.440;-2.534;2023-11-22T06:13:07;8.43;;;3.20;;
48987;SDS011;34799;51.440;-2.534;2023-11-22T06:15:35;7.43;;;3.92;;
48987;SDS011;34799;51.440;-2.534;2023-11-22T06:18:02;6.32;;;3.40;;
48987;SDS011;34799;51.440;-2.534;2023-11-22T06:20:30;6.15;;;4.03;;
48987;SDS011;34799;51.440;-2.534;2023-11-22T06:22:58;8.85;;;3.83;;
48987;SDS011;34799;51.440;-2.534;2023-11-22T06:25:27;9.55;;;3.42;;
48987;SDS011;34799;51.440;-2.534;2023-11-22T06:27:56;8.35;;;3.67;;
48987;SDS011;34799;51.440;-2.534;2023-11-22T06:30:24;9.25;;;3.33;;
48987;SDS011;34799;51.440;-2.534;2023-11-22T06:32:53;9.75;;;3.83;;
48987;SDS011;34799;51.440;-2.534;2023-11-22T06:35:20;9.13;;;3.78;;
48987;SDS011;34799;51.440;-2.534;2023-11-22T06:37:47;8.65;;;4.25;;
48987;SDS011;34799;51.440;-2.534;2023-11-22T06:40:15;6.75;;;3.60;;
48987;SDS011;34799;51.440;-2.534;2023-11-22T06:42:43;8.45;;;3.47;;
48987;SDS011;34799;51.440;-2.534;2023-11-22T06:45:10;7.45;;;4.00;;
48987;SDS011;34799;51.440;-2.534;2023-11-22T06:47:39;7.32;;;3.65;;
48987;SDS011;34799;51.440;-2.534;2023-11-22T06:50:07;8.95;;;3.55;;
48987;SDS011;34799;51.440;-2.534;2023-11-22T06:52:38;6.72;;;3.75;;
48987;SDS011;34799;51.440;-2.534;2023-11-22T06:55:09;6.68;;;3.58;;
48987;SDS011;34799;51.440;-2.534;2023-11-22T06:57:37;6.70;;;3.58;;
48987;SDS011;34799;51.440;-2.534;2023-11-22T07:00:05;5.50;;;3.08;;
48987;SDS011;34799;51.440;-2.534;2023-11-22T07:02:32;6.97;;;3.67;;
48987;SDS011;34799;51.440;-2.534;2023-11-22T07:04:59;6.57;;;3.42;;
48987;SDS011;34799;51.440;-2.534;2023-11-22T07:07:27;5.63;;;3.17;;
48987;SDS011;34799;51.440;-2.534;2023-11-22T07:09:54;7.82;;;3.55;;
48987;SDS011;34799;51.440;-2.534;2023-11-22T07:12:25;11.55;;;4.07;;
48987;SDS011;34799;51.440;-2.534;2023-11-22T07:14:55;11.90;;;3.83;;
48987;SDS011;34799;51.440;-2.534;2023-11-22T07:17:22;8.10;;;3.92;;
48987;SDS011;34799;51.440;-2.534;2023-11-22T07:19:50;9.52;;;3.75;;
48987;SDS011;34799;51.440;-2.534;2023-11-22T07:22:19;8.70;;;3.58;;
48987;SDS011;34799;51.440;-2.534;2023-11-22T07:24:49;8.02;;;3.55;;
48987;SDS011;34799;51.440;-2.534;2023-11-22T07:27:21;8.32;;;3.60;;
48987;SDS011;34799;51.440;-2.534;2023-11-22T07:29:48;8.00;;;4.20;;
48987;SDS011;34799;51.440;-2.534;2023-11-22T07:32:19;9.32;;;3.80;;
48987;SDS011;34799;51.440;-2.534;2023-11-22T07:34:48;9.18;;;3.88;;
48987;SDS011;34799;51.440;-2.534;2023-11-22T07:37:15;9.38;;;3.45;;
48987;SDS011;34799;51.440;-2.534;2023-11-22T07:39:45;6.80;;;2.80;;
48987;SDS011;34799;51.440;-2.534;2023-11-22T07:42:14;6.80;;;3.22;;
48987;SDS011;34799;51.440;-2.534;2023-11-22T07:44:42;10.25;;;3.33;;
48987;SDS011;34799;51.440;-2.534;2023-11-22T07:47:09;10.10;;;3.47;;
48987;SDS011;34799;51.440;-2.534;2023-11-22T07:49:40;6.60;;;2.75;;
48987;SDS011;34799;51.440;-2.534;2023-11-22T07:52:09;10.50;;;3.60;;
48987;SDS011;34799;51.440;-2.534;2023-11-22T07:54:40;8.73;;;4.15;;
48987;SDS011;34799;51.440;-2.534;2023-11-22T07:57:07;15.45;;;6.28;;
48987;SDS011;34799;51.440;-2.534;2023-11-22T07:59:35;15.95;;;5.97;;
48987;SDS011;34799;51.440;-2.534;2023-11-22T08:02:05;11.80;;;4.10;;
48987;SDS011;34799;51.440;-2.534;2023-11-22T08:04:37;7.88;;;3.65;;
48987;SDS011;34799;51.440;-2.534;2023-11-22T08:07:04;9.43;;;3.72;;
48987;SDS011;34799;51.440;-2.534;2023-11-22T08:09:49;9.35;;;4.20;;
48987;SDS011;34799;51.440;-2.534;2023-11-22T08:12:18;11.52;;;3.55;;
48987;SDS011;34799;51.440;-2.534;2023-11-22T08:14:46;8.90;;;3.47;;
48987;SDS011;34799;51.440;-2.534;2023-11-22T08:17:14;8.20;;;4.07;;
48987;SDS011;34799;51.440;-2.534;2023-11-22T08:19:42;11.65;;;3.80;;
48987;SDS011;34799;51.440;-2.534;2023-11-22T08:22:09;8.13;;;3.80;;
48987;SDS011;34799;51.440;-2.534;2023-11-22T08:24:36;8.68;;;3.50;;
48987;SDS011;34799;51.440;-2.534;2023-11-22T08:27:03;9.70;;;3.85;;
48987;SDS011;34799;51.440;-2.534;2023-11-22T08:29:30;8.43;;;3.00;;
48987;SDS011;34799;51.440;-2.534;2023-11-22T08:31:58;8.85;;;3.42;;
48987;SDS011;34799;51.440;-2.534;2023-11-22T08:34:26;5.18;;;2.50;;
48987;SDS011;34799;51.440;-2.534;2023-11-22T08:36:55;6.97;;;2.10;;
48987;SDS011;34799;51.440;-2.534;2023-11-22T08:39:22;4.78;;;1.48;;
48987;SDS011;34799;51.440;-2.534;2023-11-22T08:41:51;5.82;;;1.63;;
48987;SDS011;34799;51.440;-2.534;2023-11-22T08:44:18;5.40;;;1.02;;
48987;SDS011;34799;51.440;-2.534;2023-11-22T08:46:46;6.38;;;1.75;;
48987;SDS011;34799;51.440;-2.534;2023-11-22T08:49:13;4.35;;;1.60;;
48987;SDS011;34799;51.440;-2.534;2023-11-22T08:51:41;7.57;;;1.50;;
48987;SDS011;34799;51.440;-2.534;2023-11-22T08:54:09;9.65;;;1.80;;
48987;SDS011;34799;51.440;-2.534;2023-11-22T08:56:36;3.10;;;1.30;;
48987;SDS011;34799;51.440;-2.534;2023-11-22T08:59:04;3.75;;;0.82;;
48987;SDS011;34799;51.440;-2.534;2023-11-22T09:01:32;12.00;;;1.60;;
48987;SDS011;34799;51.440;-2.534;2023-11-22T09:04:00;11.60;;;1.88;;
48987;SDS011;34799;51.440;-2.534;2023-11-22T09:06:27;5.95;;;0.90;;
48987;SDS011;34799;51.440;-2.534;2023-11-22T09:08:56;3.67;;;0.98;;
48987;SDS011;34799;51.440;-2.534;2023-11-22T09:11:24;4.68;;;1.52;;
48987;SDS011;34799;51.440;-2.534;2023-11-22T09:13:53;6.15;;;1.70;;
48987;SDS011;34799;51.440;-2.534;2023-11-22T09:16:23;5.90;;;2.10;;
48987;SDS011;34799;51.440;-2.534;2023-11-22T09:18:51;9.82;;;1.30;;
48987;SDS011;34799;51.440;-2.534;2023-11-22T09:21:21;8.75;;;1.52;;
48987;SDS011;34799;51.440;-2.534;2023-11-22T09:23:49;4.32;;;1.00;;
48987;SDS011;34799;51.440;-2.534;2023-11-22T09:26:16;6.72;;;1.33;;
48987;SDS011;34799;51.440;-2.534;2023-11-22T09:28:44;2.47;;;0.65;;
48987;SDS011;34799;51.440;-2.534;2023-11-22T09:31:11;4.32;;;0.80;;
48987;SDS011;34799;51.440;-2.534;2023-11-22T09:33:46;6.00;;;0.57;;
48987;SDS011;34799;51.440;-2.534;2023-11-22T09:36:16;5.72;;;0.70;;
48987;SDS011;34799;51.440;-2.534;2023-11-22T09:38:44;3.22;;;0.50;;
48987;SDS011;34799;51.440;-2.534;2023-11-22T09:41:11;4.93;;;0.70;;
48987;SDS011;34799;51.440;-2.534;2023-11-22T09:43:39;10.30;;;0.60;;
48987;SDS011;34799;51.440;-2.534;2023-11-22T09:46:06;5.53;;;0.60;;
48987;SDS011;34799;51.440;-2.534;2023-11-22T09:48:38;5.63;;;0.82;;
48987;SDS011;34799;51.440;-2.534;2023-11-22T09:51:14;4.30;;;0.60;;
48987;SDS011;34799;51.440;-2.534;2023-11-22T09:54:04;4.30;;;0.60;;
48987;SDS011;34799;51.440;-2.534;2023-11-22T09:56:34;8.75;;;1.88;;
48987;SDS011;34799;51.440;-2.534;2023-11-22T09:59:03;8.55;;;0.85;;
48987;SDS011;34799;51.440;-2.534;2023-11-22T10:01:30;7.50;;;0.88;;
48987;SDS011;34799;51.440;-2.534;2023-11-22T10:03:59;6.47;;;0.68;;
48987;SDS011;34799;51.440;-2.534;2023-11-22T10:06:27;5.75;;;0.90;;
48987;SDS011;34799;51.440;-2.534;2023-11-22T10:09:01;5.35;;;0.65;;
48987;SDS011;34799;51.440;-2.534;2023-11-22T10:11:36;3.53;;;0.73;;
48987;SDS011;34799;51.440;-2.534;2023-11-22T10:14:06;6.93;;;0.75;;
48987;SDS011;34799;51.440;-2.534;2023-11-22T10:16:33;4.68;;;0.80;;
48987;SDS011;34799;51.440;-2.534;2023-11-22T10:19:00;5.88;;;1.00;;
48987;SDS011;34799;51.440;-2.534;2023-11-22T10:21:28;4.00;;;0.60;;
48987;SDS011;34799;51.440;-2.534;2023-11-22T10:24:01;5.88;;;0.80;;
48987;SDS011;34799;51.440;-2.534;2023-11-22T10:26:30;4.40;;;0.60;;
48987;SDS011;34799;51.440;-2.534;2023-11-22T10:28:58;4.93;;;0.50;;
48987;SDS011;34799;51.440;-2.534;2023-11-22T10:31:27;6.20;;;0.82;;
48987;SDS011;34799;51.440;-2.534;2023-11-22T10:33:55;3.60;;;0.52;;
48987;SDS011;34799;51.440;-2.534;2023-11-22T10:36:24;10.40;;;1.30;;
48987;SDS011;34799;51.440;-2.534;2023-11-22T10:38:53;7.07;;;0.50;;
48987;SDS011;34799;51.440;-2.534;2023-11-22T10:41:21;4.45;;;0.43;;
48987;SDS011;34799;51.440;-2.534;2023-11-22T10:43:53;8.10;;;0.65;;
48987;SDS011;34799;51.440;-2.534;2023-11-22T10:46:29;4.13;;;0.57;;
48987;SDS011;34799;51.440;-2.534;2023-11-22T10:48:57;8.90;;;0.50;;
48987;SDS011;34799;51.440;-2.534;2023-11-22T10:51:34;16.50;;;4.65;;
48987;SDS011;34799;51.440;-2.534;2023-11-22T10:54:07;7.63;;;2.35;;
48987;SDS011;34799;51.440;-2.534;2023-11-22T10:56:36;8.35;;;1.20;;
48987;SDS011;34799;51.440;-2.534;2023-11-22T10:59:12;6.00;;;0.57;;
48987;SDS011;34799;51.440;-2.534;2023-11-22T11:01:44;6.15;;;0.70;;
48987;SDS011;34799;51.440;-2.534;2023-11-22T11:04:21;7.60;;;0.80;;
48987;SDS011;34799;51.440;-2.534;2023-11-22T11:09:53;11.50;;;1.05;;
48987;SDS011;34799;51.440;-2.534;2023-11-22T11:12:25;13.93;;;0.70;;
48987;SDS011;34799;51.440;-2.534;2023-11-22T11:14:53;4.90;;;0.43;;
48987;SDS011;34799;51.440;-2.534;2023-11-22T11:17:21;5.55;;;0.60;;
48987;SDS011;34799;51.440;-2.534;2023-11-22T11:19:50;4.13;;;0.40;;
48987;SDS011;34799;51.440;-2.534;2023-11-22T11:22:17;6.57;;;0.60;;
48987;SDS011;34799;51.440;-2.534;2023-11-22T11:24:47;3.03;;;0.50;;
48987;SDS011;34799;51.440;-2.534;2023-11-22T11:27:15;3.83;;;0.60;;
48987;SDS011;34799;51.440;-2.534;2023-11-22T11:29:42;9.55;;;0.73;;
48987;SDS011;34799;51.440;-2.534;2023-11-22T11:32:12;5.50;;;0.50;;
48987;SDS011;34799;51.440;-2.534;2023-11-22T11:34:58;6.80;;;0.50;;
48987;SDS011;34799;51.440;-2.534;2023-11-22T11:37:30;5.15;;;0.73;;
48987;SDS011;34799;51.440;-2.534;2023-11-22T11:39:57;7.00;;;0.70;;
48987;SDS011;34799;51.440;-2.534;2023-11-22T11:42:25;10.25;;;1.23;;
48987;SDS011;34799;51.440;-2.534;2023-11-22T11:47:26;6.78;;;1.33;;
48987;SDS011;34799;51.440;-2.534;2023-11-22T11:49:54;5.72;;;1.30;;
48987;SDS011;34799;51.440;-2.534;2023-11-22T11:52:22;10.43;;;0.75;;
48987;SDS011;34799;51.440;-2.534;2023-11-22T11:54:51;6.68;;;0.60;;
48987;SDS011;34799;51.440;-2.534;2023-11-22T11:57:18;6.78;;;0.50;;
48987;SDS011;34799;51.440;-2.534;2023-11-22T11:59:46;7.38;;;0.68;;
48987;SDS011;34799;51.440;-2.534;2023-11-22T12:02:13;12.23;;;0.90;;
48987;SDS011;34799;51.440;-2.534;2023-11-22T12:04:43;5.22;;;0.68;;
48987;SDS011;34799;51.440;-2.534;2023-11-22T12:07:11;5.28;;;0.65;;
48987;SDS011;34799;51.440;-2.534;2023-11-22T12:09:39;7.82;;;0.80;;
48987;SDS011;34799;51.440;-2.534;2023-11-22T12:12:08;3.72;;;0.70;;
48987;SDS011;34799;51.440;-2.534;2023-11-22T12:14:37;3.35;;;0.75;;
48987;SDS011;34799;51.440;-2.534;2023-11-22T12:17:04;5.45;;;0.60;;
48987;SDS011;34799;51.440;-2.534;2023-11-22T12:19:34;6.60;;;1.50;;
48987;SDS011;34799;51.440;-2.534;2023-11-22T12:22:01;9.73;;;0.68;;
48987;SDS011;34799;51.440;-2.534;2023-11-22T12:24:31;6.40;;;0.60;;
48987;SDS011;34799;51.440;-2.534;2023-11-22T12:27:00;7.72;;;0.60;;
48987;SDS011;34799;51.440;-2.534;2023-11-22T12:29:27;10.63;;;0.90;;
48987;SDS011;34799;51.440;-2.534;2023-11-22T12:31:55;6.10;;;0.95;;
48987;SDS011;34799;51.440;-2.534;2023-11-22T12:34:24;4.78;;;1.23;;
48987;SDS011;34799;51.440;-2.534;2023-11-22T12:36:52;7.03;;;0.90;;
48987;SDS011;34799;51.440;-2.534;2023-11-22T12:39:21;4.80;;;0.80;;
48987;SDS011;34799;51.440;-2.534;2023-11-22T12:41:51;5.93;;;1.05;;
48987;SDS011;34799;51.440;-2.534;2023-11-22T12:44:21;5.63;;;1.33;;
48987;SDS011;34799;51.440;-2.534;2023-11-22T12:46:49;6.45;;;1.10;;
48987;SDS011;34799;51.440;-2.534;2023-11-22T12:49:24;8.35;;;2.67;;
48987;SDS011;34799;51.440;-2.534;2023-11-22T12:51:56;9.43;;;2.33;;
48987;SDS011;34799;51.440;-2.534;2023-11-22T12:54:26;6.22;;;1.40;;
48987;SDS011;34799;51.440;-2.534;2023-11-22T12:56:55;5.35;;;1.60;;
48987;SDS011;34799;51.440;-2.534;2023-11-22T12:59:25;6.93;;;1.15;;
48987;SDS011;34799;51.440;-2.534;2023-11-22T13:01:57;3.75;;;1.17;;
48987;SDS011;34799;51.440;-2.534;2023-11-22T13:04:26;8.02;;;1.88;;
48987;SDS011;34799;51.440;-2.534;2023-11-22T13:06:57;4.38;;;1.52;;
48987;SDS011;34799;51.440;-2.534;2023-11-22T13:09:26;4.72;;;1.60;;
48987;SDS011;34799;51.440;-2.534;2023-11-22T13:11:53;6.45;;;1.27;;
48987;SDS011;34799;51.440;-2.534;2023-11-22T13:14:21;6.85;;;1.67;;
48987;SDS011;34799;51.440;-2.534;2023-11-22T13:16:49;10.05;;;2.15;;
48987;SDS011;34799;51.440;-2.534;2023-11-22T13:19:18;7.20;;;2.25;;
48987;SDS011;34799;51.440;-2.534;2023-11-22T13:21:45;5.05;;;2.47;;
48987;SDS011;34799;51.440;-2.534;2023-11-22T13:24:14;11.07;;;3.00;;
48987;SDS011;34799;51.440;-2.534;2023-11-22T13:26:44;6.53;;;2.63;;
48987;SDS011;34799;51.440;-2.534;2023-11-22T13:29:12;7.97;;;2.70;;
48987;SDS011;34799;51.440;-2.534;2023-11-22T13:31:40;6.97;;;2.13;;
48987;SDS011;34799;51.440;-2.534;2023-11-22T13:34:08;4.30;;;1.48;;
48987;SDS011;34799;51.440;-2.534;2023-11-22T13:36:35;8.15;;;1.65;;
48987;SDS011;34799;51.440;-2.534;2023-11-22T13:39:02;3.30;;;1.95;;
48987;SDS011;34799;51.440;-2.534;2023-11-22T13:41:30;4.82;;;1.40;;
48987;SDS011;34799;51.440;-2.534;2023-11-22T13:43:58;5.65;;;1.10;;
48987;SDS011;34799;51.440;-2.534;2023-11-22T13:46:25;15.27;;;1.50;;
48987;SDS011;34799;51.440;-2.534;2023-11-22T13:48:52;4.35;;;1.00;;
48987;SDS011;34799;51.440;-2.534;2023-11-22T13:51:24;4.50;;;0.80;;
48987;SDS011;34799;51.440;-2.534;2023-11-22T13:53:51;10.70;;;3.45;;
48987;SDS011;34799;51.440;-2.534;2023-11-22T13:56:19;2.53;;;1.33;;
48987;SDS011;34799;51.440;-2.534;2023-11-22T13:58:48;5.47;;;1.10;;
48987;SDS011;34799;51.440;-2.534;2023-11-22T14:01:15;6.30;;;0.90;;
48987;SDS011;34799;51.440;-2.534;2023-11-22T14:03:48;6.93;;;1.00;;
48987;SDS011;34799;51.440;-2.534;2023-11-22T14:06:15;4.30;;;1.15;;
48987;SDS011;34799;51.440;-2.534;2023-11-22T14:08:43;8.60;;;2.55;;
48987;SDS011;34799;51.440;-2.534;2023-11-22T14:11:11;4.50;;;1.42;;
48987;SDS011;34799;51.440;-2.534;2023-11-22T14:13:39;6.35;;;1.60;;
48987;SDS011;34799;51.440;-2.534;2023-11-22T14:16:07;4.20;;;2.22;;
48987;SDS011;34799;51.440;-2.534;2023-11-22T14:18:35;5.93;;;2.53;;
48987;SDS011;34799;51.440;-2.534;2023-11-22T14:21:03;3.42;;;1.60;;
48987;SDS011;34799;51.440;-2.534;2023-11-22T14:23:32;5.15;;;1.45;;
48987;SDS011;34799;51.440;-2.534;2023-11-22T14:26:00;5.22;;;1.83;;
48987;SDS011;34799;51.440;-2.534;2023-11-22T14:28:29;8.48;;;1.90;;
48987;SDS011;34799;51.440;-2.534;2023-11-22T14:30:58;4.68;;;1.73;;
48987;SDS011;34799;51.440;-2.534;2023-11-22T14:33:26;3.85;;;1.92;;
48987;SDS011;34799;51.440;-2.534;2023-11-22T14:35:58;4.68;;;1.80;;
48987;SDS011;34799;51.440;-2.534;2023-11-22T14:38:25;5.78;;;1.92;;
48987;SDS011;34799;51.440;-2.534;2023-11-22T14:40:53;4.38;;;1.63;;
48987;SDS011;34799;51.440;-2.534;2023-11-22T14:43:21;5.22;;;2.25;;
48987;SDS011;34799;51.440;-2.534;2023-11-22T14:45:50;7.63;;;1.90;;
48987;SDS011;34799;51.440;-2.534;2023-11-22T14:48:18;4.43;;;2.17;;